Decoded Metar for LEDA (LLEIDA in SPAIN) (IATA:ILD) | Meteo·Mobile Aviation Weather
aviador You're here:

LEDA Decoded Metar

LLEIDA in SPAIN
Report Time2019-05-23 11:00:00
UTC Time2019-05-23 11:19:46
Flight Rules vfr VFR
Wind170° at 05 kt
W.Decomp.*RWY 13: 3.8 kt HW 3.2 kt RCW
Visibility9999 m
Phenomena:N/A
Clouds:N/A
Expected CloudBase > 6,800 ft AGL from Temp-Dew spread
CeilingNone
Temp24°C (ISA +11)
Dew Point07°C (34% RH)
AAT21.5°C
QNH1017 hPa
Density Alt2,464 ft
Elevation1,152 ft
Report Wrong Elevation
Raw Report
LEDA 231100Z 17005KT 110V230 CAVOK 24/07 Q1017=

Extra information for LEDA:More info

Metar Taf Metar & Taf Last 4 Metars F.Rules Stats Wind Profile Meteogram Temp Stats Airport Information Weather charts Add Link Nearby VenuesMetar ALERT Operation Metar Decoded Social comments